Terminal Aerodrome Forecast
Issued by NWS Charleston, SC

Home | Current Version | Previous Version | Text Only | Print | Product List | Glossary On
Versions: 1 2 3 4 5 6 7 8 9 10 11 12 13 14 15 16 17 18 19
273
FTUS42 KCHS 271720
TAFCHS
TAF
KCHS 271720Z 2718/2818 VRB05KT P6SM SCT050 BKN200
     FM280200 VRB03KT P6SM SCT200
     FM281400 07009KT P6SM SCT035=

USA.gov is the U.S. government's official web portal to all federal, state and local government web resources and services.